Time;durP1;ratioP1;P1;durP2;ratioP2;P2;SDS_P1;SDS_P2;PMS_P1;PMS_P2;Temp;Humidity;BMP_temperature;BMP_pressure;BME280_temperature;BME280_humidity;BME280_pressure;Samples;Min_cycle;Max_cycle;Signal;HPM_P1;HPM_P2
2023/06/17 00:01:49;;;;;;;7.30;6.60;;;;;;;-141.84;75.86;20608.56;4992109;28;20530;-67
2023/06/17 00:04:18;;;;;;;7.50;6.80;;;;;;;-141.84;76.59;20565.88;4991780;28;20618;-67
2023/06/17 00:06:48;;;;;;;7.88;7.10;;;;;;;-141.84;76.30;20594.34;4991473;28;20283;-67
2023/06/17 00:09:16;;;;;;;7.55;6.75;;;;;;;-141.84;77.00;20563.84;4991673;28;20266;-67
2023/06/17 00:11:45;;;;;;;8.77;7.57;;;;;;;-141.84;77.58;20563.84;4990953;28;20295;-67
2023/06/17 00:14:14;;;;;;;8.57;7.28;;;;;;;-141.84;77.99;20559.78;4992043;28;20277;-67
2023/06/17 00:16:43;;;;;;;8.73;7.28;;;;;;;-141.84;78.04;20541.50;4991479;28;20544;-67
2023/06/17 00:19:16;;;;;;;8.20;7.40;;;;;;;-141.84;77.96;20535.41;4991923;28;20199;-66
2023/06/17 00:21:48;;;;;;;8.80;7.68;;;;;;;-141.84;78.91;20525.22;4991601;28;20188;-67
2023/06/17 00:24:18;;;;;;;8.45;7.65;;;;;;;-141.84;78.89;20519.13;4990986;28;20659;-67
2023/06/17 00:26:46;;;;;;;10.00;8.77;;;;;;;-141.84;79.05;20508.97;4990914;28;20199;-67
2023/06/17 00:29:16;;;;;;;12.15;8.20;;;;;;;-141.84;77.84;20565.88;4991535;28;20245;-67
2023/06/17 00:31:44;;;;;;;9.65;8.63;;;;;;;-141.84;77.89;20543.53;4991411;28;20227;-66
2023/06/17 00:34:12;;;;;;;9.45;8.55;;;;;;;-141.84;78.08;20533.34;4991541;28;20290;-66
2023/06/17 00:36:41;;;;;;;11.05;8.05;;;;;;;-141.84;78.38;20515.06;4991620;28;20287;-66
2023/06/17 00:39:09;;;;;;;9.00;8.20;;;;;;;-141.84;79.16;20543.53;4991218;28;20207;-67
2023/06/17 00:41:39;;;;;;;9.82;8.93;;;;;;;-141.84;80.14;20464.25;4988728;28;20238;-67
2023/06/17 00:44:08;;;;;;;9.52;8.63;;;;;;;-141.84;80.62;20441.88;4971986;28;20287;-66
2023/06/17 00:46:40;;;;;;;11.20;9.18;;;;;;;-141.84;81.41;20450.03;4974506;28;20266;-67
2023/06/17 00:49:10;;;;;;;9.98;8.98;;;;;;;-141.84;81.80;20460.19;4991477;28;20203;-67
2023/06/17 00:51:39;;;;;;;10.13;9.13;;;;;;;-141.84;81.56;20460.19;4991346;28;20246;-67
2023/06/17 00:54:09;;;;;;;9.05;8.20;;;;;;;-141.84;81.54;20472.38;4991510;28;20235;-66
2023/06/17 00:56:40;;;;;;;9.80;8.80;;;;;;;-141.84;82.23;20413.44;4990955;28;20203;-66
2023/06/17 00:59:09;;;;;;;10.27;9.27;;;;;;;-141.84;82.71;20368.72;4991001;28;20663;-67
2023/06/17 01:01:37;;;;;;;10.82;9.82;;;;;;;-141.84;82.58;20423.59;4991059;28;20705;-68
2023/06/17 01:04:06;;;;;;;11.02;9.93;;;;;;;-141.84;82.63;20435.78;4990899;28;20261;-66
2023/06/17 01:06:42;;;;;;;10.90;9.80;;;;;;;-141.84;82.68;20433.75;4991139;28;20196;-67
2023/06/17 01:09:17;;;;;;;11.80;10.53;;;;;;;-141.84;82.68;20441.88;4991009;28;20659;-67
2023/06/17 01:11:48;;;;;;;10.88;9.75;;;;;;;-141.84;82.72;20427.66;4990454;28;20327;-67
2023/06/17 01:14:17;;;;;;;11.52;10.38;;;;;;;-141.84;82.63;20407.34;4991414;28;20316;-67
2023/06/17 01:16:50;;;;;;;11.43;10.23;;;;;;;-141.84;82.96;20419.53;4991406;28;20239;-67
2023/06/17 01:19:22;;;;;;;12.30;11.02;;;;;;;-141.84;83.21;20415.47;4991114;28;20195;-66
2023/06/17 01:21:53;;;;;;;11.38;10.02;;;;;;;-141.84;83.22;20421.56;4991123;28;20275;-67
2023/06/17 01:24:29;;;;;;;10.83;9.83;;;;;;;-141.84;83.38;20405.31;4991539;28;20192;-67
2023/06/17 01:26:59;;;;;;;12.60;10.65;;;;;;;-141.84;83.78;20423.59;4970922;28;20184;-67
2023/06/17 01:29:30;;;;;;;11.45;10.10;;;;;;;-141.84;83.41;20403.25;4971058;28;20300;-66
2023/06/17 01:32:00;;;;;;;11.75;10.32;;;;;;;-141.84;84.22;20380.91;4971450;28;20279;-66
2023/06/17 01:34:37;;;;;;;11.90;10.67;;;;;;;-141.84;84.30;20368.72;4971558;28;20541;-67
2023/06/17 01:37:09;;;;;;;12.27;10.52;;;;;;;-141.84;84.68;20358.56;4971750;28;20219;-67
2023/06/17 01:39:43;;;;;;;12.98;10.52;;;;;;;-141.84;84.74;20362.63;4986666;28;20291;-66
2023/06/17 01:42:19;;;;;;;12.70;11.02;;;;;;;-141.84;84.64;20352.44;4990655;28;20202;-67
2023/06/17 01:44:49;;;;;;;13.45;11.27;;;;;;;-141.84;84.16;20342.28;4990910;28;20223;-66
2023/06/17 01:47:17;;;;;;;12.35;11.15;;;;;;;-141.84;83.55;20387.00;4990962;28;20235;-66
2023/06/17 01:49:46;;;;;;;13.82;11.00;;;;;;;-141.84;82.79;20374.81;4991069;28;20286;-67
2023/06/17 01:52:14;;;;;;;11.82;10.73;;;;;;;-141.84;83.42;20389.03;4990901;28;20263;-66
2023/06/17 01:54:44;;;;;;;11.30;10.10;;;;;;;-141.84;84.09;20364.66;4992852;28;20204;-67
2023/06/17 01:57:13;;;;;;;12.03;10.93;;;;;;;-141.84;85.01;20301.63;4994318;28;20207;-67
2023/06/17 01:59:42;;;;;;;11.43;10.32;;;;;;;-141.84;85.36;20350.41;4994446;28;20238;-66
2023/06/17 02:02:11;;;;;;;11.43;10.37;;;;;;;-141.84;85.58;20313.84;4993987;28;20299;-67
2023/06/17 02:04:40;;;;;;;11.85;10.38;;;;;;;-141.84;85.10;20315.88;4994350;28;20238;-66
2023/06/17 02:07:10;;;;;;;12.70;10.82;;;;;;;-141.84;85.33;20305.69;4976760;28;20204;-68
2023/06/17 02:09:38;;;;;;;12.10;10.73;;;;;;;-141.84;85.67;20291.47;4993624;28;20239;-67
2023/06/17 02:12:09;;;;;;;11.70;10.50;;;;;;;-141.84;85.88;20311.78;4993583;28;20207;-67
2023/06/17 02:14:38;;;;;;;12.70;11.00;;;;;;;-141.84;85.38;20338.22;4994334;28;20215;-66
2023/06/17 02:17:08;;;;;;;11.95;10.75;;;;;;;-141.84;85.47;20311.78;4993813;28;20678;-69
2023/06/17 02:19:37;;;;;;;12.15;10.95;;;;;;;-141.84;85.75;20299.59;4994519;28;20203;-66
2023/06/17 02:22:06;;;;;;;12.60;11.33;;;;;;;-141.84;85.61;20301.63;4994127;28;20208;-66
2023/06/17 02:24:35;;;;;;;12.65;11.35;;;;;;;-141.84;85.18;20330.09;4993416;28;20227;-66
2023/06/17 02:27:05;;;;;;;12.68;10.48;;;;;;;-141.84;84.14;20350.41;4993677;28;20211;-67
2023/06/17 02:29:35;;;;;;;11.33;10.23;;;;;;;-141.84;84.49;20340.25;4993832;28;20215;-67
2023/06/17 02:32:04;;;;;;;11.43;9.85;;;;;;;-141.84;84.88;20279.28;4993774;28;20298;-67
2023/06/17 02:34:35;;;;;;;11.93;10.73;;;;;;;-141.84;85.00;20317.91;4993277;28;20702;-67
2023/06/17 02:37:04;;;;;;;12.10;10.93;;;;;;;-141.84;84.00;20338.22;4993515;28;20191;-67
2023/06/17 02:39:32;;;;;;;11.85;10.70;;;;;;;-141.84;83.65;20342.28;4992980;28;20214;-67
2023/06/17 02:42:01;;;;;;;12.23;10.93;;;;;;;-141.84;83.85;20338.22;4992935;28;20210;-67
2023/06/17 02:44:29;;;;;;;13.38;11.20;;;;;;;-141.84;83.74;20342.28;4993061;28;20693;-66
2023/06/17 02:46:59;;;;;;;11.40;10.20;;;;;;;-141.84;84.00;20338.22;4993294;28;20207;-66
2023/06/17 02:49:28;;;;;;;11.97;10.77;;;;;;;-141.84;84.06;20344.31;4993584;28;20208;-67
2023/06/17 02:51:56;;;;;;;11.43;10.33;;;;;;;-141.84;84.00;20328.06;4991835;28;20230;-67
2023/06/17 02:54:25;;;;;;;11.55;10.25;;;;;;;-141.84;83.72;20324.00;4992751;28;20306;-68
2023/06/17 02:56:54;;;;;;;11.48;10.38;;;;;;;-141.84;83.45;20360.59;4992514;28;20662;-67
2023/06/17 02:59:24;;;;;;;11.43;10.35;;;;;;;-141.84;83.55;20366.69;4993029;28;20239;-66
2023/06/17 03:01:52;;;;;;;10.25;9.35;;;;;;;-141.84;83.98;20326.03;4992623;28;20705;-66
2023/06/17 03:04:23;;;;;;;12.20;10.90;;;;;;;-141.84;83.27;20350.41;4993009;28;20639;-66
2023/06/17 03:06:52;;;;;;;11.38;10.18;;;;;;;-141.84;82.86;20326.03;4992174;28;20656;-66
2023/06/17 03:09:20;;;;;;;12.10;10.90;;;;;;;-141.84;82.16;20344.31;4992723;28;20331;-67
2023/06/17 03:11:49;;;;;;;11.80;10.52;;;;;;;-141.84;82.39;20307.72;5002282;28;20237;-67
2023/06/17 03:14:19;;;;;;;11.33;10.17;;;;;;;-141.84;83.21;20338.22;5012480;28;20222;-67
2023/06/17 03:16:48;;;;;;;11.95;10.75;;;;;;;-141.84;83.04;20330.09;5011864;28;20214;-67
2023/06/17 03:19:17;;;;;;;11.57;10.47;;;;;;;-141.84;82.91;20338.22;5012723;28;20198;-66
2023/06/17 03:21:49;;;;;;;12.03;10.80;;;;;;;-141.84;82.99;20303.66;4987503;28;20223;-67
2023/06/17 03:24:18;;;;;;;12.33;11.13;;;;;;;-141.84;82.07;20340.25;4973732;28;20239;-67
2023/06/17 03:26:47;;;;;;;12.30;10.53;;;;;;;-141.84;81.68;20354.47;4992047;28;20199;-66
2023/06/17 03:29:16;;;;;;;11.63;10.53;;;;;;;-141.84;82.03;20326.03;4973426;28;20204;-66
2023/06/17 03:31:44;;;;;;;12.77;11.43;;;;;;;-141.84;81.89;20330.09;4984263;28;20239;-67
2023/06/17 03:34:13;;;;;;;11.85;10.65;;;;;;;-141.84;81.18;20378.88;4991294;28;20255;-67
2023/06/17 03:36:41;;;;;;;12.38;10.63;;;;;;;-141.84;81.19;20360.59;4991825;28;20286;-68
2023/06/17 03:39:11;;;;;;;12.23;10.50;;;;;;;-141.84;79.82;20395.13;4992522;28;20674;-67
2023/06/17 03:41:40;;;;;;;12.13;10.93;;;;;;;-141.84;80.88;20362.63;4991458;28;20579;-67
2023/06/17 03:44:08;;;;;;;12.27;11.07;;;;;;;-141.84;81.05;20307.72;4992359;28;20294;-67
2023/06/17 03:46:37;;;;;;;11.65;10.45;;;;;;;-141.84;80.22;20389.03;4988954;28;20211;-67
2023/06/17 03:49:05;;;;;;;12.07;10.88;;;;;;;-141.84;80.05;20384.97;4972973;28;20302;-67
2023/06/17 03:51:34;;;;;;;11.57;10.38;;;;;;;-141.84;79.17;20409.38;4973673;28;20200;-67
2023/06/17 03:54:02;;;;;;;12.30;10.75;;;;;;;-141.84;78.96;20395.13;4991904;28;20225;-67
2023/06/17 03:56:32;;;;;;;11.03;10.03;;;;;;;-141.84;78.23;20423.59;4991668;28;20587;-66
2023/06/17 03:59:01;;;;;;;14.53;10.83;;;;;;;-141.84;78.10;20443.91;4974033;28;20250;-68
2023/06/17 04:01:30;;;;;;;12.82;11.07;;;;;;;-141.84;78.94;20433.75;4971646;28;20228;-67
2023/06/17 04:03:58;;;;;;;12.48;10.30;;;;;;;-141.84;78.23;20435.78;4980667;28;20282;-67
2023/06/17 04:06:27;;;;;;;12.18;9.88;;;;;;;-141.84;78.31;20456.13;4991515;28;20234;-68
2023/06/17 04:08:56;;;;;;;10.80;9.73;;;;;;;-141.84;77.32;20435.78;4991571;28;20286;-68
2023/06/17 04:11:24;;;;;;;11.00;9.85;;;;;;;-141.84;78.18;20452.06;4991546;28;20203;-68
2023/06/17 04:13:54;;;;;;;10.35;9.27;;;;;;;-141.84;78.13;20452.06;4991949;28;20314;-67
2023/06/17 04:16:23;;;;;;;10.63;9.52;;;;;;;-141.84;77.81;20443.91;4990821;28;20230;-68
2023/06/17 04:18:52;;;;;;;11.93;10.10;;;;;;;-141.84;76.88;20480.50;4991626;28;20725;-67
2023/06/17 04:21:22;;;;;;;10.15;9.18;;;;;;;-141.84;75.89;20506.94;4991644;28;20629;-67
2023/06/17 04:23:51;;;;;;;10.57;8.90;;;;;;;-141.84;76.78;20456.13;4992074;28;20226;-68
2023/06/17 04:26:19;;;;;;;10.88;9.77;;;;;;;-141.84;75.97;20537.44;4991746;28;20299;-68
2023/06/17 04:28:49;;;;;;;10.18;9.18;;;;;;;-141.84;75.97;20541.50;4988897;28;20651;-67
2023/06/17 04:31:18;;;;;;;10.98;9.73;;;;;;;-141.84;76.37;20553.69;4991068;28;20306;-67
2023/06/17 04:33:47;;;;;;;10.40;9.32;;;;;;;-141.84;75.73;20513.03;4991124;28;20227;-67
2023/06/17 04:36:17;;;;;;;10.48;9.48;;;;;;;-141.84;75.04;20555.72;4991524;28;20246;-67
2023/06/17 04:38:47;;;;;;;9.68;8.77;;;;;;;-141.84;74.71;20506.94;4991824;28;20203;-67
2023/06/17 04:41:16;;;;;;;9.38;8.48;;;;;;;-141.84;75.46;20541.50;4991591;28;20204;-68
2023/06/17 04:43:48;;;;;;;10.30;9.00;;;;;;;-141.84;75.08;20549.63;4991506;28;20294;-66
2023/06/17 04:46:19;;;;;;;9.48;8.57;;;;;;;-141.84;75.05;20525.22;4990734;28;20195;-68
2023/06/17 04:48:48;;;;;;;10.35;9.35;;;;;;;-141.84;75.05;20551.66;4972118;28;20247;-68
2023/06/17 04:51:18;;;;;;;10.13;9.13;;;;;;;-141.84;74.96;20561.81;4972052;28;20208;-68
2023/06/17 04:53:46;;;;;;;10.07;9.05;;;;;;;-141.84;74.71;20561.81;4990433;28;20207;-67
2023/06/17 04:56:15;;;;;;;11.10;9.88;;;;;;;-141.84;73.80;20574.00;4991619;28;20290;-69
2023/06/17 04:58:43;;;;;;;11.13;9.15;;;;;;;-141.84;74.86;20545.56;4975307;28;20235;-68
2023/06/17 05:01:13;;;;;;;10.63;9.52;;;;;;;-141.84;74.84;20521.16;4971496;28;20299;-68
2023/06/17 05:03:43;;;;;;;9.95;8.95;;;;;;;-141.84;75.31;20517.09;4977505;28;20262;-67
2023/06/17 05:06:11;;;;;;;11.38;9.60;;;;;;;-141.84;74.83;20584.19;4991483;28;20207;-68
2023/06/17 05:08:40;;;;;;;10.98;9.75;;;;;;;-141.84;73.01;20665.50;4991128;28;20231;-67
2023/06/17 05:11:08;;;;;;;11.00;10.00;;;;;;;-141.84;71.39;20728.50;4990922;28;20250;-67
2023/06/17 05:13:38;;;;;;;11.30;9.10;;;;;;;-141.84;70.11;20759.00;4990796;28;20257;-67
2023/06/17 05:16:07;;;;;;;11.43;8.38;;;;;;;-141.84;68.73;20874.88;4990401;28;20290;-68
2023/06/17 05:18:36;;;;;;;9.30;8.38;;;;;;;-141.84;66.38;20976.53;4991187;28;20199;-68
2023/06/17 05:21:06;;;;;;;9.30;8.40;;;;;;;-141.84;64.75;21045.63;4991009;28;20247;-67
2023/06/17 05:23:34;;;;;;;10.88;8.82;;;;;;;-141.84;64.99;20990.75;4991189;28;20187;-68
2023/06/17 05:26:03;;;;;;;9.70;8.57;;;;;;;-141.84;64.74;20980.59;4991275;28;20257;-67
2023/06/17 05:28:31;;;;;;;9.23;8.30;;;;;;;-141.84;66.27;20968.38;4989419;28;20261;-67
2023/06/17 05:31:00;;;;;;;9.88;8.88;;;;;;;-141.84;65.65;20980.59;4994547;28;20211;-67
2023/06/17 05:33:30;;;;;;;9.60;8.43;;;;;;;-141.84;67.04;20911.47;4994175;28;20646;-67
2023/06/17 05:36:00;;;;;;;10.40;8.98;;;;;;;-141.84;67.79;20872.84;4995011;28;20391;-67
2023/06/17 05:38:30;;;;;;;10.48;9.55;;;;;;;-141.84;68.91;20803.72;4994887;28;20290;-68
2023/06/17 05:40:59;;;;;;;10.32;9.27;;;;;;;-141.84;69.94;20773.22;4994713;28;20670;-67
2023/06/17 05:43:28;;;;;;;9.23;8.43;;;;;;;-141.84;70.34;20752.91;4994474;28;20231;-67
2023/06/17 05:45:56;;;;;;;10.63;9.55;;;;;;;-141.84;71.19;20756.97;4994449;28;20700;-68
2023/06/17 05:48:25;;;;;;;10.40;9.18;;;;;;;-141.84;70.61;20759.00;4977281;28;20620;-67
2023/06/17 05:50:54;;;;;;;10.43;9.35;;;;;;;-141.84;70.69;20779.31;4990775;28;20426;-68
2023/06/17 05:53:22;;;;;;;10.43;9.13;;;;;;;-141.84;71.04;20771.19;4994143;28;20230;-66
2023/06/17 05:55:52;;;;;;;10.25;9.25;;;;;;;-141.84;70.34;20817.94;4994363;28;20227;-67
2023/06/17 05:58:21;;;;;;;11.00;9.85;;;;;;;-141.84;69.49;20874.88;4993880;28;20294;-67
2023/06/17 06:00:49;;;;;;;11.07;9.40;;;;;;;-141.84;67.83;20931.78;4994568;28;20235;-66
2023/06/17 06:03:18;;;;;;;10.15;9.10;;;;;;;-141.84;68.78;20911.47;4993860;28;20207;-67
2023/06/17 06:05:46;;;;;;;11.82;9.73;;;;;;;-141.84;69.11;20883.00;4994469;28;20196;-68
2023/06/17 06:08:15;;;;;;;10.27;9.10;;;;;;;-141.84;68.99;20895.19;4994213;28;20227;-66
2023/06/17 06:10:43;;;;;;;12.00;9.73;;;;;;;-141.84;68.36;20952.13;4994112;28;20684;-69
2023/06/17 06:13:13;;;;;;;11.30;10.20;;;;;;;-141.84;68.01;20964.31;4993497;28;20249;-67
2023/06/17 06:15:42;;;;;;;11.43;9.05;;;;;;;-141.84;68.12;21007.00;4994070;28;20293;-68
2023/06/17 06:18:10;;;;;;;10.50;9.18;;;;;;;-141.84;67.61;21004.97;4994126;28;20204;-67
2023/06/17 06:20:39;;;;;;;11.20;10.00;;;;;;;-141.84;66.05;21110.69;4993810;28;20254;-67
2023/06/17 06:23:09;;;;;;;11.05;9.95;;;;;;;-141.84;66.51;21070.03;4990306;28;20294;-68
2023/06/17 06:25:37;;;;;;;13.40;10.02;;;;;;;-141.84;66.04;21116.78;4974386;28;20208;-68
2023/06/17 06:28:06;;;;;;;11.63;10.45;;;;;;;-141.84;65.97;21086.31;4984392;28;20674;-67
2023/06/17 06:30:36;;;;;;;10.52;9.32;;;;;;;-141.84;65.44;21147.28;4993900;28;20282;-67
2023/06/17 06:33:05;;;;;;;11.80;10.50;;;;;;;-141.84;65.21;21159.50;4990063;28;20223;-68
2023/06/17 06:35:33;;;;;;;13.40;11.30;;;;;;;-141.84;65.23;21118.84;4980469;28;20695;-67
2023/06/17 06:38:02;;;;;;;12.27;10.98;;;;;;;-141.84;65.42;21114.75;4974524;28;20232;-67
2023/06/17 06:40:30;;;;;;;13.15;11.20;;;;;;;-141.84;66.49;21106.63;4986387;28;20231;-68
2023/06/17 06:42:59;;;;;;;12.73;11.52;;;;;;;-141.84;66.69;21098.50;4993112;28;20294;-67
2023/06/17 06:45:27;;;;;;;12.70;11.30;;;;;;;-141.84;67.92;21011.09;4993396;28;20295;-68
2023/06/17 06:47:57;;;;;;;14.35;13.02;;;;;;;-141.84;67.82;21049.72;4992384;28;20552;-67
2023/06/17 06:50:26;;;;;;;15.45;13.90;;;;;;;-141.84;67.46;21086.31;4991324;28;20214;-68
2023/06/17 06:52:55;;;;;;;17.15;15.35;;;;;;;-141.84;67.29;21035.47;4991764;28;20618;-68
2023/06/17 06:55:23;;;;;;;16.08;14.48;;;;;;;-141.84;68.64;21004.97;4991105;28;20665;-68
2023/06/17 06:57:52;;;;;;;20.40;15.32;;;;;;;-141.84;69.13;20974.50;4991159;28;20203;-66
2023/06/17 07:00:21;;;;;;;20.00;15.57;;;;;;;-141.84;68.92;21000.91;4991462;28;20207;-67
2023/06/17 07:02:50;;;;;;;18.70;15.70;;;;;;;-141.84;69.01;20966.34;4992380;28;20199;-68
2023/06/17 07:05:22;;;;;;;18.25;16.10;;;;;;;-141.84;69.08;21011.09;4993712;28;20278;-67
2023/06/17 07:07:50;;;;;;;16.67;14.90;;;;;;;-141.84;69.51;20956.19;4993259;28;20211;-68
2023/06/17 07:10:19;;;;;;;16.92;15.30;;;;;;;-141.84;70.17;20974.50;4992757;28;20277;-68
2023/06/17 07:12:48;;;;;;;18.48;16.67;;;;;;;-141.84;69.20;21004.97;4992772;28;20204;-69
2023/06/17 07:15:17;;;;;;;17.35;15.57;;;;;;;-141.84;69.20;20986.69;4992844;28;20259;-67
2023/06/17 07:17:45;;;;;;;18.33;16.23;;;;;;;-141.84;68.73;21029.38;4993368;28;20294;-67
2023/06/17 07:20:14;;;;;;;18.13;15.40;;;;;;;-141.84;68.29;21068.00;4992857;28;20582;-67
2023/06/17 07:22:44;;;;;;;19.05;16.05;;;;;;;-141.84;66.62;21163.56;4992785;28;20199;-67
2023/06/17 07:25:12;;;;;;;16.02;14.32;;;;;;;-141.84;67.07;21116.78;4993094;28;20258;-67
2023/06/17 07:27:41;;;;;;;16.25;14.65;;;;;;;-141.84;66.57;21204.22;4992592;28;20298;-67
2023/06/17 07:30:10;;;;;;;17.25;15.52;;;;;;;-141.84;65.77;21224.56;4992663;28;20707;-67
2023/06/17 07:32:39;;;;;;;23.25;18.75;;;;;;;-141.84;64.36;21238.78;4992734;28;20199;-68
2023/06/17 07:35:08;;;;;;;19.23;17.23;;;;;;;-141.84;63.48;21326.22;4991958;28;20307;-67
2023/06/17 07:37:36;;;;;;;20.58;18.00;;;;;;;-141.84;62.11;21387.19;4992738;28;20616;-68
2023/06/17 07:40:10;;;;;;;21.05;18.05;;;;;;;-141.84;61.89;21427.88;4992030;28;20709;-68
2023/06/17 07:42:42;;;;;;;19.40;17.05;;;;;;;-141.84;60.18;21519.34;4992030;28;20474;-67
2023/06/17 07:45:11;;;;;;;17.67;15.90;;;;;;;-141.84;59.48;21621.03;4992367;28;20266;-67
2023/06/17 07:47:40;;;;;;;17.15;15.25;;;;;;;-141.84;58.14;21696.25;4992034;28;20200;-68
2023/06/17 07:50:10;;;;;;;18.63;15.07;;;;;;;-141.84;57.38;21741.00;4992455;28;20209;-67
2023/06/17 07:52:38;;;;;;;16.52;14.93;;;;;;;-141.84;56.37;21826.41;4991282;28;20200;-68
2023/06/17 07:55:09;;;;;;;18.17;15.63;;;;;;;-141.84;56.13;21822.31;4992152;28;20207;-67
2023/06/17 07:57:38;;;;;;;15.70;14.10;;;;;;;-141.84;57.17;21781.66;4991823;28;20572;-66
2023/06/17 08:00:10;;;;;;;18.08;16.17;;;;;;;-141.84;56.79;21757.25;4991972;28;20204;-67
2023/06/17 08:02:39;;;;;;;16.38;14.68;;;;;;;-141.84;58.14;21732.84;4992261;28;20246;-67
2023/06/17 08:05:09;;;;;;;17.52;15.52;;;;;;;-141.84;58.37;21686.09;4991202;28;20642;-68
2023/06/17 08:07:37;;;;;;;17.45;15.75;;;;;;;-141.84;58.41;21627.13;4991715;28;20663;-68
2023/06/17 08:10:08;;;;;;;16.98;15.38;;;;;;;-141.84;59.27;21596.63;4991468;28;20277;-68
2023/06/17 08:12:38;;;;;;;16.00;14.52;;;;;;;-141.84;59.48;21578.31;4991750;28;20187;-67
2023/06/17 08:15:08;;;;;;;20.70;16.70;;;;;;;-141.84;58.50;21663.72;4991394;28;20679;-68
2023/06/17 08:17:36;;;;;;;16.75;15.07;;;;;;;-141.84;56.49;21852.81;4991644;28;20334;-66
2023/06/17 08:20:06;;;;;;;17.05;15.38;;;;;;;-141.84;55.71;21840.63;4991928;28;20311;-66
2023/06/17 08:22:35;;;;;;;15.27;13.80;;;;;;;-141.84;57.13;21787.75;4991744;28;20196;-67
2023/06/17 08:25:04;;;;;;;14.40;13.07;;;;;;;-141.84;57.00;21830.47;4991724;28;20598;-67
2023/06/17 08:27:34;;;;;;;16.05;14.48;;;;;;;-141.84;56.77;21814.19;4991150;28;20679;-68
2023/06/17 08:30:03;;;;;;;16.08;14.55;;;;;;;-141.84;55.87;21869.09;4991690;28;20261;-67
2023/06/17 08:32:32;;;;;;;16.15;14.55;;;;;;;-141.84;55.75;21946.38;4991918;28;20203;-66
2023/06/17 08:35:05;;;;;;;15.32;13.93;;;;;;;-141.84;54.34;21993.13;4991352;28;20289;-68
2023/06/17 08:37:34;;;;;;;16.40;14.70;;;;;;;-141.84;53.52;22056.19;4991739;28;20203;-67
2023/06/17 08:40:03;;;;;;;15.10;13.70;;;;;;;-141.84;53.09;22129.38;4991231;28;20622;-68
2023/06/17 08:42:33;;;;;;;16.67;15.02;;;;;;;-141.84;52.48;22161.91;4991064;28;20258;-68
2023/06/17 08:45:03;;;;;;;13.55;12.43;;;;;;;-141.84;53.23;22090.75;4991659;28;20262;-66
2023/06/17 08:47:33;;;;;;;16.05;14.55;;;;;;;-141.84;53.49;22050.06;4989891;28;20659;-68
2023/06/17 08:50:02;;;;;;;14.60;13.20;;;;;;;-141.84;53.96;22027.72;4992506;28;20207;-70
2023/06/17 08:52:34;;;;;;;13.80;12.57;;;;;;;-141.84;54.00;22052.09;4991500;28;20207;-67
2023/06/17 08:55:03;;;;;;;16.20;13.18;;;;;;;-141.84;53.65;22054.13;4991295;28;20616;-66
2023/06/17 08:57:33;;;;;;;16.00;14.38;;;;;;;-141.84;52.23;22200.56;4990573;28;20656;-67
2023/06/17 09:00:03;;;;;;;14.43;13.02;;;;;;;-141.84;51.86;22170.06;4991454;28;20203;-67
2023/06/17 09:02:34;;;;;;;13.52;12.13;;;;;;;-141.84;52.11;22198.53;4992808;28;20291;-67
2023/06/17 09:05:04;;;;;;;13.70;12.50;;;;;;;-141.84;51.92;22180.22;4994893;28;20659;-67
2023/06/17 09:07:32;;;;;;;13.85;12.60;;;;;;;-141.84;50.21;22237.16;4995160;28;20195;-67
2023/06/17 09:10:06;;;;;;;13.90;12.60;;;;;;;-141.84;51.14;22237.16;4995023;28;20234;-67
2023/06/17 09:12:39;;;;;;;12.75;11.57;;;;;;;-141.84;52.02;22143.63;4994562;28;20242;-67
2023/06/17 09:15:14;;;;;;;14.48;13.07;;;;;;;-141.84;51.22;22233.09;4995267;28;20219;-67
2023/06/17 09:17:44;;;;;;;13.88;12.57;;;;;;;-141.84;51.46;22249.38;4995233;28;20294;-67
2023/06/17 09:20:14;;;;;;;14.18;12.38;;;;;;;-141.84;51.59;22283.94;4995192;28;20721;-67
2023/06/17 09:22:44;;;;;;;14.15;12.45;;;;;;;-141.84;51.14;22369.34;4995172;28;20266;-67
2023/06/17 09:25:14;;;;;;;14.65;12.45;;;;;;;-141.84;51.68;22180.22;4995130;28;20269;-67
2023/06/17 09:27:49;;;;;;;12.27;11.18;;;;;;;-141.84;52.28;22111.09;4994510;28;20199;-67
2023/06/17 09:30:22;;;;;;;14.68;13.20;;;;;;;-141.84;52.33;22076.50;5001669;28;20219;-67
2023/06/17 09:32:52;;;;;;;13.25;12.05;;;;;;;-141.84;52.40;22107.00;4994603;28;20194;-68
2023/06/17 09:35:21;;;;;;;13.18;12.02;;;;;;;-141.84;50.85;22168.03;4994395;28;20587;-68
2023/06/17 09:37:52;;;;;;;11.57;10.52;;;;;;;-141.84;50.62;22208.69;4994859;28;20223;-67
2023/06/17 09:40:29;;;;;;;11.30;10.30;;;;;;;-141.84;49.68;22190.38;5001379;28;20291;-70
2023/06/17 09:43:02;;;;;;;12.05;10.95;;;;;;;-141.84;49.14;22269.69;4994120;28;20566;-67
2023/06/17 09:45:55;;;;;;;10.73;9.65;;;;;;;-141.84;48.60;22310.38;4994274;28;20697;-66
2023/06/17 09:48:29;;;;;;;10.77;9.77;;;;;;;-141.84;49.68;22149.72;4994383;28;20195;-68
2023/06/17 09:50:59;;;;;;;11.00;10.07;;;;;;;-141.84;49.23;22229.03;4994756;28;20316;-68
2023/06/17 09:53:29;;;;;;;11.82;10.50;;;;;;;-141.84;48.78;22149.72;4994482;28;20203;-67
2023/06/17 09:55:59;;;;;;;9.80;9.00;;;;;;;-141.84;49.58;22176.16;4994032;28;20359;-68
2023/06/17 09:58:31;;;;;;;10.52;9.50;;;;;;;-141.84;49.99;22163.94;4994150;28;20211;-67
2023/06/17 10:01:05;;;;;;;10.50;9.38;;;;;;;-141.84;48.79;22227.00;4994348;28;20666;-67
2023/06/17 10:03:34;;;;;;;10.23;9.23;;;;;;;-141.84;48.22;22253.44;4993964;28;20211;-67
2023/06/17 10:06:08;;;;;;;9.23;8.32;;;;;;;-141.84;48.46;22328.69;4994297;28;20226;-66
2023/06/17 10:08:40;;;;;;;8.65;7.85;;;;;;;-141.84;48.60;22298.16;4993699;28;20230;-67
2023/06/17 10:11:10;;;;;;;8.73;7.88;;;;;;;-141.84;46.87;22288.00;4993245;28;20282;-68
2023/06/17 10:13:42;;;;;;;9.27;8.25;;;;;;;-141.84;47.79;22273.78;4993439;28;20288;-67
2023/06/17 10:16:16;;;;;;;8.50;7.70;;;;;;;-141.84;47.46;22355.13;4993929;28;20220;-68
2023/06/17 10:18:49;;;;;;;9.68;8.68;;;;;;;-141.84;46.19;22371.38;4993938;28;20207;-67
2023/06/17 10:21:21;;;;;;;9.43;8.20;;;;;;;-141.84;47.21;22259.53;4993823;28;20230;-67
2023/06/17 10:23:50;;;;;;;9.02;8.18;;;;;;;-141.84;48.68;22104.97;4994080;28;20275;-68
2023/06/17 10:26:21;;;;;;;8.20;7.40;;;;;;;-141.84;49.37;22033.81;4993402;28;20215;-68
2023/06/17 10:29:02;;;;;;;9.15;8.25;;;;;;;-141.84;50.71;22046.00;4993751;28;20642;-67
2023/06/17 10:31:32;;;;;;;9.55;8.65;;;;;;;-141.84;49.79;22066.34;4994142;28;20203;-67
2023/06/17 10:34:03;;;;;;;9.23;8.43;;;;;;;-141.84;49.51;22078.53;4993331;28;20227;-68
2023/06/17 10:36:35;;;;;;;8.98;8.07;;;;;;;-141.84;48.60;22098.88;4993566;28;20250;-68
2023/06/17 10:39:09;;;;;;;9.15;7.95;;;;;;;-141.84;47.79;22243.25;4993520;28;20223;-68
2023/06/17 10:41:55;;;;;;;7.90;7.20;;;;;;;-141.84;47.20;22312.41;4992868;28;20639;-68
2023/06/17 10:44:43;;;;;;;8.40;7.60;;;;;;;-141.84;47.72;22328.69;4993475;28;20278;-67
2023/06/17 10:47:21;;;;;;;8.98;8.05;;;;;;;-141.84;47.86;22336.81;4993627;28;20188;-68
2023/06/17 10:49:52;;;;;;;8.02;7.30;;;;;;;-141.84;47.58;22375.44;4993627;28;20234;-67
2023/06/17 10:52:21;;;;;;;9.07;8.05;;;;;;;-141.84;47.43;22381.56;4993210;28;20590;-68
2023/06/17 10:54:54;;;;;;;8.35;7.65;;;;;;;-141.84;46.02;22523.91;4993455;28;20291;-68
2023/06/17 10:57:33;;;;;;;8.20;7.40;;;;;;;-141.84;46.26;22558.50;4992760;28;20228;-68
2023/06/17 11:00:10;;;;;;;8.75;7.95;;;;;;;-141.84;46.44;22462.91;4993261;28;20194;-67
2023/06/17 11:02:40;;;;;;;7.93;7.18;;;;;;;-141.84;47.17;22416.13;4993428;28;20246;-67
2023/06/17 11:05:09;;;;;;;9.13;8.32;;;;;;;-141.84;46.55;22475.09;4992384;28;20215;-67
2023/06/17 11:07:38;;;;;;;9.02;8.07;;;;;;;-141.84;46.17;22540.19;4992948;28;20607;-68
2023/06/17 11:10:08;;;;;;;8.75;7.93;;;;;;;-141.84;46.24;22534.09;4992454;28;20270;-67
2023/06/17 11:12:39;;;;;;;8.80;7.78;;;;;;;-141.84;47.55;22365.28;4992952;28;20204;-68
2023/06/17 11:15:09;;;;;;;9.60;8.73;;;;;;;-141.84;47.44;22312.41;4993591;28;20192;-67
2023/06/17 11:17:38;;;;;;;7.55;6.95;;;;;;;-141.84;48.64;22237.16;4992921;28;20234;-68
2023/06/17 11:20:08;;;;;;;8.90;8.18;;;;;;;-141.84;48.96;22180.22;4993257;28;20203;-67